createdAt,value
2017-08-01T00:00:37.717Z,62.43
2017-08-01T00:01:18.171Z,62.23
2017-08-01T00:01:58.622Z,62.04
2017-08-01T00:02:39.081Z,62.04
2017-08-01T00:03:19.542Z,62.04
2017-08-01T00:03:59.997Z,62.33
2017-08-01T00:04:40.450Z,62.23
2017-08-01T00:05:20.907Z,62.33
2017-08-01T00:06:01.359Z,62.33
2017-08-01T00:06:41.814Z,62.33
2017-08-01T00:07:22.266Z,62.33
2017-08-01T00:08:02.729Z,62.43
2017-08-01T00:08:43.182Z,62.23
2017-08-01T00:09:23.640Z,62.23
2017-08-01T00:10:04.100Z,62.52
2017-08-01T00:10:44.564Z,62.43
2017-08-01T00:11:25.006Z,62.43
2017-08-01T00:12:05.478Z,62.23
2017-08-01T00:12:45.927Z,62.52
2017-08-01T00:13:26.377Z,62.33
2017-08-01T00:14:06.830Z,62.33
2017-08-01T00:14:47.282Z,62.43
2017-08-01T00:15:27.733Z,62.23
2017-08-01T00:16:08.190Z,62.33
2017-08-01T00:16:48.647Z,62.82
2017-08-01T00:17:29.102Z,62.72
2017-08-01T00:18:09.551Z,62.82
2017-08-01T00:18:50.009Z,62.72
2017-08-01T00:19:30.466Z,62.72
2017-08-01T00:20:10.929Z,62.91
2017-08-01T00:20:51.376Z,62.65
2017-08-01T00:21:31.825Z,62.72
2017-08-01T00:22:12.315Z,62.52
2017-08-01T00:22:52.767Z,62.82
2017-08-01T00:23:33.228Z,62.72
2017-08-01T00:24:13.687Z,62.72
2017-08-01T00:24:54.149Z,62.82
2017-08-01T00:25:34.598Z,62.82
2017-08-01T00:26:15.056Z,62.72
2017-08-01T00:26:55.512Z,62.43
2017-08-01T00:27:35.964Z,62.72
2017-08-01T00:28:16.421Z,62.72
2017-08-01T00:28:56.879Z,62.72
2017-08-01T00:29:37.331Z,62.72
2017-08-01T00:30:17.790Z,62.82
2017-08-01T00:30:58.252Z,62.82
2017-08-01T00:31:38.716Z,62.52
2017-08-01T00:32:19.172Z,62.43
2017-08-01T00:32:59.661Z,62.72
2017-08-01T00:33:40.123Z,62.43
2017-08-01T00:34:20.580Z,62.43
2017-08-01T00:35:01.033Z,62.82
2017-08-01T00:35:41.494Z,62.43
2017-08-01T00:36:21.942Z,62.91
2017-08-01T00:37:02.398Z,62.43
2017-08-01T00:37:42.866Z,62.52
2017-08-01T00:38:23.313Z,62.52
2017-08-01T00:39:03.773Z,62.52
2017-08-01T00:39:44.227Z,62.52
2017-08-01T00:40:24.685Z,62.52
2017-08-01T00:41:05.144Z,62.82
2017-08-01T00:41:45.604Z,62.91
2017-08-01T00:42:26.064Z,62.62
2017-08-01T00:43:06.518Z,62.62
2017-08-01T00:43:46.978Z,62.72
2017-08-01T00:44:27.454Z,62.72
2017-08-01T00:45:07.920Z,62.82
2017-08-01T00:45:48.378Z,62.82
2017-08-01T00:46:28.833Z,62.82
2017-08-01T00:47:09.291Z,62.82
2017-08-01T00:47:49.749Z,63.01
2017-08-01T00:48:30.210Z,62.91
2017-08-01T00:49:10.663Z,62.82
2017-08-01T00:49:51.117Z,62.82
2017-08-01T00:50:31.574Z,62.82
2017-08-01T00:51:12.035Z,62.82
2017-08-01T00:51:52.491Z,62.91
2017-08-01T00:52:32.953Z,62.82
2017-08-01T00:53:13.409Z,62.82
2017-08-01T00:53:53.864Z,62.82
2017-08-01T00:54:34.320Z,62.72
2017-08-01T00:55:14.767Z,62.82
2017-08-01T00:55:55.226Z,62.91
2017-08-01T00:56:35.681Z,62.72
2017-08-01T00:57:16.137Z,62.72
2017-08-01T00:57:56.597Z,62.72
2017-08-01T00:58:37.045Z,62.72
2017-08-01T00:59:17.500Z,62.91
2017-08-01T00:59:57.960Z,63.1
2017-08-01T01:00:38.420Z,63.1
2017-08-01T01:01:18.878Z,63.1
2017-08-01T01:01:59.335Z,63.01
2017-08-01T01:02:39.794Z,63.1
2017-08-01T01:03:20.249Z,63.1
2017-08-01T01:04:00.705Z,62.72
2017-08-01T01:04:41.160Z,63.49
2017-08-01T01:05:21.618Z,63.3
2017-08-01T01:06:02.074Z,63.3
2017-08-01T01:06:42.520Z,63.4
2017-08-01T01:07:22.979Z,63.4
2017-08-01T01:08:03.439Z,63.4
2017-08-01T01:08:43.898Z,63.3
2017-08-01T01:09:24.355Z,63.3
2017-08-01T01:10:04.817Z,63.4
2017-08-01T01:10:45.275Z,63.4
2017-08-01T01:11:25.726Z,63.3
2017-08-01T01:12:06.181Z,63.4
2017-08-01T01:12:46.645Z,63.4
2017-08-01T01:13:27.106Z,63.4
2017-08-01T01:14:07.565Z,63.49
2017-08-01T01:14:48.014Z,63.3
2017-08-01T01:15:28.468Z,63.4
2017-08-01T01:16:08.923Z,63.4
2017-08-01T01:16:49.378Z,63.4
2017-08-01T01:17:29.830Z,63.2
2017-08-01T01:18:10.286Z,63.3
2017-08-01T01:18:50.748Z,63.1
2017-08-01T01:19:31.200Z,63.1
2017-08-01T01:20:11.658Z,63.1
2017-08-01T01:20:52.113Z,63.59
2017-08-01T01:21:32.608Z,63.3
2017-08-01T01:22:13.065Z,63.65
2017-08-01T01:22:53.522Z,63.49
2017-08-01T01:23:33.981Z,63.78
2017-08-01T01:24:14.439Z,63.65
2017-08-01T01:24:54.895Z,63.85
2017-08-01T01:25:35.352Z,64.04
2017-08-01T01:26:15.819Z,64.04
2017-08-01T01:26:56.269Z,64.14
2017-08-01T01:27:36.732Z,64.24
2017-08-01T01:28:17.189Z,64.24
2017-08-01T01:28:57.661Z,64.14
2017-08-01T01:29:38.111Z,63.56
2017-08-01T01:30:18.564Z,63.85
2017-08-01T01:30:59.020Z,63.75
2017-08-01T01:31:39.480Z,64.14
2017-08-01T01:32:19.936Z,64.04
2017-08-01T01:33:00.394Z,64.2
2017-08-01T01:33:40.856Z,64.34
2017-08-01T01:34:21.314Z,64.34
2017-08-01T01:35:01.768Z,64.24
2017-08-01T01:35:42.224Z,64.5
2017-08-01T01:36:22.685Z,64.4
2017-08-01T01:37:03.140Z,64.4
2017-08-01T01:37:43.601Z,64.11
2017-08-01T01:38:24.055Z,64.2
2017-08-01T01:39:04.511Z,64.3
2017-08-01T01:39:44.968Z,64.5
2017-08-01T01:40:25.419Z,64.4
2017-08-01T01:41:05.877Z,64.2
2017-08-01T01:41:46.361Z,64.4
2017-08-01T01:42:26.813Z,64.5
2017-08-01T01:43:07.291Z,64.5
2017-08-01T01:43:47.714Z,64.59
2017-08-01T01:44:28.155Z,64.2
2017-08-01T01:45:08.617Z,64.2
2017-08-01T01:45:49.079Z,64.3
2017-08-01T01:46:29.534Z,64.3
2017-08-01T01:47:10.001Z,64.11
2017-08-01T01:47:50.459Z,64.4
2017-08-01T01:48:30.915Z,64.4
2017-08-01T01:49:11.369Z,64.4
2017-08-01T01:49:51.824Z,64.4
2017-08-01T01:50:32.285Z,64.11
2017-08-01T01:51:12.740Z,64.2
2017-08-01T01:51:53.195Z,64.5
2017-08-01T01:52:33.640Z,64.2
2017-08-01T01:53:14.097Z,64.11
2017-08-01T01:53:54.552Z,64.01
2017-08-01T01:54:35.012Z,64.4
2017-08-01T01:55:15.464Z,64.2
2017-08-01T01:55:55.919Z,64.4
2017-08-01T01:56:36.377Z,64.2
2017-08-01T01:57:16.824Z,64.3
2017-08-01T01:57:57.282Z,64.5
2017-08-01T01:58:37.792Z,64.2
2017-08-01T01:59:18.251Z,64.24
2017-08-01T01:59:58.705Z,64.2
2017-08-01T02:00:39.168Z,64.24
2017-08-01T02:01:19.624Z,64.34
2017-08-01T02:02:00.078Z,64.2
2017-08-01T02:02:40.562Z,64.24
2017-08-01T02:03:21.014Z,64.01
2017-08-01T02:04:01.468Z,64.01
2017-08-01T02:04:41.921Z,63.65
2017-08-01T02:05:22.387Z,64.24
2017-08-01T02:06:02.837Z,64.04
2017-08-01T02:06:43.294Z,64.14
2017-08-01T02:07:23.757Z,63.95
2017-08-01T02:08:04.214Z,63.95
2017-08-01T02:08:44.669Z,63.95
2017-08-01T02:09:25.127Z,63.92
2017-08-01T02:10:05.586Z,63.95
2017-08-01T02:10:46.033Z,63.85
2017-08-01T02:11:26.491Z,63.95
2017-08-01T02:12:06.943Z,63.95
2017-08-01T02:12:47.401Z,63.95
2017-08-01T02:13:27.857Z,63.95
2017-08-01T02:14:08.316Z,63.95
2017-08-01T02:14:48.767Z,63.95
2017-08-01T02:15:29.224Z,63.65
2017-08-01T02:16:09.676Z,63.62
2017-08-01T02:16:50.134Z,63.65
2017-08-01T02:17:30.584Z,63.56
2017-08-01T02:18:11.038Z,63.75
2017-08-01T02:18:51.488Z,63.65
2017-08-01T02:19:31.937Z,63.65
2017-08-01T02:20:12.392Z,63.46
2017-08-01T02:20:52.847Z,63.62
2017-08-01T02:21:33.302Z,63.65
2017-08-01T02:22:13.761Z,63.65
2017-08-01T02:22:54.217Z,63.75
2017-08-01T02:23:34.666Z,63.65
2017-08-01T02:24:15.123Z,63.65
2017-08-01T02:24:55.574Z,63.65
2017-08-01T02:25:36.031Z,63.65
2017-08-01T02:26:16.485Z,63.75
2017-08-01T02:26:56.937Z,63.75
2017-08-01T02:27:37.388Z,63.65
2017-08-01T02:28:17.845Z,63.65
2017-08-01T02:28:58.304Z,63.65
2017-08-01T02:29:38.762Z,63.75
2017-08-01T02:30:19.210Z,63.85
2017-08-01T02:30:59.673Z,64.14
2017-08-01T02:31:40.139Z,63.65
2017-08-01T02:32:20.588Z,64.14
2017-08-01T02:33:01.048Z,64.04
2017-08-01T02:33:41.501Z,64.14
2017-08-01T02:34:21.960Z,64.04
2017-08-01T02:35:02.424Z,64.04
2017-08-01T02:35:42.882Z,64.04
2017-08-01T02:36:23.338Z,63.65
2017-08-01T02:37:03.797Z,64.01
2017-08-01T02:37:44.255Z,64.01
2017-08-01T02:38:24.711Z,63.65
2017-08-01T02:39:05.168Z,64.04
2017-08-01T02:39:45.631Z,64.01
2017-08-01T02:40:26.087Z,63.72
2017-08-01T02:41:06.550Z,64.01
2017-08-01T02:41:47.012Z,63.75
2017-08-01T02:42:27.464Z,64.14
2017-08-01T02:43:07.926Z,64.11
2017-08-01T02:43:48.385Z,64.2
2017-08-01T02:44:28.846Z,64.24
2017-08-01T02:45:09.302Z,64.24
2017-08-01T02:45:49.761Z,64.04
2017-08-01T02:46:30.220Z,64.04
2017-08-01T02:47:10.680Z,63.92
2017-08-01T02:47:51.135Z,64.04
2017-08-01T02:48:31.588Z,63.92
2017-08-01T02:49:12.039Z,63.95
2017-08-01T02:49:52.495Z,63.92
2017-08-01T02:50:32.957Z,64.11
2017-08-01T02:51:13.415Z,63.72
2017-08-01T02:51:53.869Z,63.75
2017-08-01T02:52:34.323Z,64.01
2017-08-01T02:53:14.783Z,64.01
2017-08-01T02:53:55.244Z,63.92
2017-08-01T02:54:35.700Z,63.85
2017-08-01T02:55:16.163Z,64.14
2017-08-01T02:55:56.616Z,63.62
2017-08-01T02:56:37.076Z,63.72
2017-08-01T02:57:17.532Z,64.04
2017-08-01T02:57:57.990Z,63.72
2017-08-01T02:58:38.454Z,64.01
2017-08-01T02:59:18.911Z,63.56
2017-08-01T02:59:59.369Z,63.53
2017-08-01T03:00:39.835Z,63.72
2017-08-01T03:01:20.291Z,63.72
2017-08-01T03:02:00.748Z,63.72
2017-08-01T03:02:41.199Z,63.72
2017-08-01T03:03:21.666Z,63.62
2017-08-01T03:04:02.142Z,64.01
2017-08-01T03:04:42.603Z,64.11
2017-08-01T03:05:23.054Z,64.11
2017-08-01T03:06:03.508Z,63.82
2017-08-01T03:06:43.981Z,64.2
2017-08-01T03:07:24.440Z,63.92
2017-08-01T03:08:04.899Z,64.01
2017-08-01T03:08:45.361Z,63.72
2017-08-01T03:09:25.809Z,64.01
2017-08-01T03:10:06.270Z,64.2
2017-08-01T03:10:46.728Z,64.2
2017-08-01T03:11:27.187Z,64.01
2017-08-01T03:12:07.643Z,63.62
2017-08-01T03:12:48.104Z,64.01
2017-08-01T03:13:28.563Z,63.72
2017-08-01T03:14:09.033Z,64.01
2017-08-01T03:15:56.551Z,64.11
2017-08-01T03:16:37.009Z,64.2
2017-08-01T03:17:17.450Z,63.92
2017-08-01T03:17:57.904Z,64.01
2017-08-01T03:18:38.342Z,63.82
2017-08-01T03:19:18.794Z,64.01
2017-08-01T03:19:59.250Z,63.92
2017-08-01T03:20:39.709Z,64.11
2017-08-01T03:21:20.166Z,63.62
2017-08-01T03:22:00.620Z,63.53
2017-08-01T03:22:41.071Z,63.53
2017-08-01T03:23:21.525Z,63.82
2017-08-01T03:24:01.980Z,63.82
2017-08-01T03:24:42.436Z,63.72
2017-08-01T03:25:22.892Z,63.72
2017-08-01T03:26:03.349Z,63.62
2017-08-01T03:26:43.797Z,63.62
2017-08-01T03:27:24.250Z,63.62
2017-08-01T03:28:04.713Z,63.53
2017-08-01T03:28:45.164Z,63.82
2017-08-01T03:29:25.620Z,63.62
2017-08-01T03:30:06.077Z,63.82
2017-08-01T03:30:46.534Z,63.53
2017-08-01T03:31:26.983Z,63.53
2017-08-01T03:32:07.505Z,63.62
2017-08-01T03:32:47.979Z,63.62
2017-08-01T03:33:28.435Z,63.62
2017-08-01T03:34:08.893Z,63.82
2017-08-01T03:34:49.348Z,63.82
2017-08-01T03:35:29.808Z,63.53
2017-08-01T03:36:10.266Z,63.72
2017-08-01T03:36:50.720Z,63.72
2017-08-01T03:37:31.174Z,63.82
2017-08-01T03:38:11.630Z,63.62
2017-08-01T03:38:52.089Z,63.62
2017-08-01T03:39:32.551Z,63.72
2017-08-01T03:40:13.001Z,63.92
2017-08-01T03:40:53.468Z,63.53
2017-08-01T03:41:33.929Z,63.72
2017-08-01T03:42:14.381Z,63.72
2017-08-01T03:42:54.843Z,63.53
2017-08-01T03:43:35.298Z,63.92
2017-08-01T03:44:15.763Z,63.65
2017-08-01T03:44:56.207Z,64.04
2017-08-01T03:45:36.661Z,64.01
2017-08-01T03:46:17.113Z,64.04
2017-08-01T03:46:57.560Z,64.24
2017-08-01T03:47:38.020Z,64.04
2017-08-01T03:48:18.476Z,64.14
2017-08-01T03:48:58.931Z,64.04
2017-08-01T03:49:39.392Z,64.04
2017-08-01T03:50:19.870Z,64.04
2017-08-01T03:51:00.335Z,64.14
2017-08-01T03:51:40.791Z,64.04
2017-08-01T03:52:21.248Z,64.14
2017-08-01T03:53:01.700Z,63.56
2017-08-01T03:53:42.149Z,63.69
2017-08-01T03:54:22.591Z,63.78
2017-08-01T03:55:03.047Z,64.27
2017-08-01T03:55:43.488Z,64.17
2017-08-01T03:56:23.949Z,64.47
2017-08-01T03:57:04.384Z,64.27
2017-08-01T03:57:44.845Z,64.27
2017-08-01T03:58:25.301Z,64.37
2017-08-01T03:59:05.753Z,64.47
2017-08-01T03:59:46.208Z,64.27
2017-08-01T04:00:26.668Z,64.27
2017-08-01T04:01:07.128Z,64.47
2017-08-01T04:01:47.589Z,64.47
2017-08-01T04:02:28.045Z,64.17
2017-08-01T04:03:08.506Z,64.27
2017-08-01T04:03:48.957Z,64.27
2017-08-01T04:04:29.409Z,64.27
2017-08-01T04:05:09.860Z,64.37
2017-08-01T04:05:50.321Z,64.27
2017-08-01T04:06:30.781Z,64.27
2017-08-01T04:07:11.230Z,64.56
2017-08-01T04:07:51.689Z,64.65
2017-08-01T04:08:32.143Z,64.56
2017-08-01T04:09:12.656Z,64.56
2017-08-01T04:09:53.100Z,64.65
2017-08-01T04:10:33.556Z,64.56
2017-08-01T04:11:14.008Z,64.27
2017-08-01T04:11:54.470Z,64.37
2017-08-01T04:12:34.926Z,64.27
2017-08-01T04:13:15.379Z,64.47
2017-08-01T04:13:55.840Z,64.47
2017-08-01T04:14:36.298Z,64.17
2017-08-01T04:15:16.751Z,64.07
2017-08-01T04:15:57.209Z,64.27
2017-08-01T04:16:37.683Z,64.47
2017-08-01T04:17:18.120Z,64.27
2017-08-01T04:17:58.572Z,63.98
2017-08-01T04:18:39.032Z,64.27
2017-08-01T04:19:19.492Z,63.78
2017-08-01T04:19:59.956Z,64.17
2017-08-01T04:20:40.408Z,63.69
2017-08-01T04:21:20.861Z,63.69
2017-08-01T04:22:01.319Z,63.69
2017-08-01T04:22:41.772Z,63.69
2017-08-01T04:23:22.229Z,63.88
2017-08-01T04:24:02.688Z,63.78
2017-08-01T04:24:43.145Z,63.88
2017-08-01T04:25:23.601Z,63.69
2017-08-01T04:26:04.053Z,63.59
2017-08-01T04:26:44.514Z,64.07
2017-08-01T04:27:24.969Z,64.17
2017-08-01T04:28:05.429Z,63.78
2017-08-01T04:28:45.886Z,64.17
2017-08-01T04:29:26.339Z,63.78
2017-08-01T04:30:06.795Z,64.07
2017-08-01T04:30:47.268Z,64.07
2017-08-01T04:31:27.764Z,64.27
2017-08-01T04:32:08.219Z,64.07
2017-08-01T04:32:48.681Z,64.27
2017-08-01T04:33:29.136Z,63.69
2017-08-01T04:34:09.597Z,63.88
2017-08-01T04:34:50.057Z,63.69
2017-08-01T04:35:30.514Z,63.78
2017-08-01T04:36:10.968Z,63.69
2017-08-01T04:36:51.421Z,63.69
2017-08-01T04:37:31.894Z,63.69
2017-08-01T04:38:12.332Z,63.78
2017-08-01T04:38:52.793Z,63.98
2017-08-01T04:39:33.249Z,63.59
2017-08-01T04:40:13.729Z,63.3
2017-08-01T04:40:54.163Z,63.3
2017-08-01T04:41:34.604Z,63.2
2017-08-01T04:42:15.060Z,63.3
2017-08-01T04:42:55.515Z,63.59
2017-08-01T04:43:35.967Z,63.2
2017-08-01T04:44:16.429Z,63.4
2017-08-01T04:44:56.881Z,63.78
2017-08-01T04:45:37.333Z,63.4
2017-08-01T04:46:17.786Z,63.59
2017-08-01T04:46:58.247Z,63.49
2017-08-01T04:47:38.703Z,63.49
2017-08-01T04:48:19.162Z,63.4
2017-08-01T04:48:59.615Z,63.2
2017-08-01T04:49:40.072Z,63.3
2017-08-01T04:50:20.531Z,63.1
2017-08-01T04:51:00.991Z,63.2
2017-08-01T04:51:41.441Z,63.2
2017-08-01T04:52:21.900Z,63.2
2017-08-01T04:53:02.350Z,63.01
2017-08-01T04:53:42.812Z,63.1
2017-08-01T04:54:23.260Z,63.3
2017-08-01T04:55:03.715Z,63.3
2017-08-01T04:55:44.177Z,63.3
2017-08-01T04:56:24.631Z,63.3
2017-08-01T04:57:05.083Z,63.2
2017-08-01T04:57:45.539Z,63.2
2017-08-01T04:58:25.991Z,63.2
2017-08-01T04:59:06.448Z,63.59
2017-08-01T04:59:46.906Z,63.4
2017-08-01T05:00:27.367Z,63.4
2017-08-01T05:01:07.823Z,63.49
2017-08-01T05:01:48.283Z,63.1
2017-08-01T05:02:28.732Z,63.4
2017-08-01T05:03:09.185Z,63.1
2017-08-01T05:03:49.636Z,63.1
2017-08-01T05:04:30.091Z,63.01
2017-08-01T05:05:10.549Z,63.1
2017-08-01T05:05:50.988Z,63.1
2017-08-01T05:06:31.445Z,63.2
2017-08-01T05:07:11.891Z,62.91
2017-08-01T05:07:52.345Z,63.1
2017-08-01T05:08:32.794Z,63.01
2017-08-01T05:09:13.248Z,62.91
2017-08-01T05:09:53.729Z,62.72
2017-08-01T05:10:34.162Z,62.82
2017-08-01T05:11:14.621Z,62.82
2017-08-01T05:11:55.078Z,62.91
2017-08-01T05:12:35.559Z,62.82
2017-08-01T05:13:15.989Z,62.82
2017-08-01T05:13:56.444Z,62.91
2017-08-01T05:14:36.902Z,62.91
2017-08-01T05:15:17.367Z,62.82
2017-08-01T05:15:57.814Z,62.82
2017-08-01T05:16:38.274Z,62.82
2017-08-01T05:17:18.728Z,62.82
2017-08-01T05:17:59.183Z,62.72
2017-08-01T05:18:39.639Z,62.82
2017-08-01T05:19:20.087Z,62.82
2017-08-01T05:20:00.542Z,63.01
2017-08-01T05:20:40.998Z,62.62
2017-08-01T05:21:21.449Z,62.82
2017-08-01T05:22:01.912Z,62.43
2017-08-01T05:22:42.367Z,62.43
2017-08-01T05:23:22.826Z,62.52
2017-08-01T05:24:03.280Z,62.43
2017-08-01T05:24:43.743Z,62.91
2017-08-01T05:25:24.195Z,62.82
2017-08-01T05:26:04.644Z,62.82
2017-08-01T05:26:45.097Z,62.72
2017-08-01T05:27:25.554Z,62.91
2017-08-01T05:28:05.998Z,62.91
2017-08-01T05:28:46.455Z,62.72
2017-08-01T05:29:26.907Z,62.72
2017-08-01T05:30:07.361Z,62.82
2017-08-01T05:30:47.835Z,62.33
2017-08-01T05:31:28.273Z,62.43
2017-08-01T05:32:08.721Z,62.33
2017-08-01T05:32:49.172Z,62.33
2017-08-01T05:33:29.627Z,62.33
2017-08-01T05:34:10.082Z,62.23
2017-08-01T05:34:50.537Z,62.33
2017-08-01T05:35:30.999Z,62.43
2017-08-01T05:36:11.443Z,62.52
2017-08-01T05:36:51.899Z,62.52
2017-08-01T05:37:32.354Z,62.23
2017-08-01T05:38:12.792Z,62.43
2017-08-01T05:38:53.242Z,62.23
2017-08-01T05:39:33.693Z,62.23
2017-08-01T05:40:14.147Z,62.23
2017-08-01T05:40:54.603Z,62.23
2017-08-01T05:42:47.200Z,62.33
2017-08-01T05:43:27.649Z,62.33
2017-08-01T05:44:08.100Z,62.13
2017-08-01T05:44:48.550Z,62.62
2017-08-01T05:45:28.996Z,62.43
2017-08-01T05:46:09.454Z,62.43
2017-08-01T05:46:49.899Z,62.33
2017-08-01T05:47:30.358Z,62.43
2017-08-01T05:48:10.805Z,62.52
2017-08-01T05:48:51.261Z,62.33
2017-08-01T05:49:31.713Z,62.43
2017-08-01T05:50:12.180Z,62.62
2017-08-01T05:50:52.631Z,62.75
2017-08-01T05:51:33.068Z,62.52
2017-08-01T05:52:13.532Z,62.13
2017-08-01T05:52:53.982Z,62.16
2017-08-01T05:53:34.437Z,62.43
2017-08-01T05:54:14.894Z,61.75
2017-08-01T05:54:55.346Z,61.85
2017-08-01T05:55:35.807Z,61.88
2017-08-01T05:56:16.250Z,62.04
2017-08-01T05:56:56.708Z,61.98
2017-08-01T05:57:37.171Z,61.88
2017-08-01T05:58:17.612Z,61.88
2017-08-01T05:58:58.136Z,61.49
2017-08-01T05:59:38.564Z,61.58
2017-08-01T06:00:19.024Z,61.68
2017-08-01T06:00:59.478Z,61.49
2017-08-01T06:01:39.936Z,61.78
2017-08-01T06:02:20.384Z,61.49
2017-08-01T06:03:00.843Z,61.78
2017-08-01T06:03:41.333Z,61.78
2017-08-01T06:04:21.770Z,61.88
2017-08-01T06:05:02.227Z,61.88
2017-08-01T06:05:42.704Z,61.98
2017-08-01T06:06:23.155Z,61.49
2017-08-01T06:07:03.627Z,61.68
2017-08-01T06:07:44.055Z,61.68
2017-08-01T06:08:24.517Z,61.39
2017-08-01T06:09:04.972Z,61.68
2017-08-01T06:09:45.433Z,61.68
2017-08-01T06:10:25.882Z,61.49
2017-08-01T06:11:06.335Z,61.58
2017-08-01T06:11:46.774Z,61.58
2017-08-01T06:12:27.236Z,61.39
2017-08-01T06:13:07.767Z,61.49
2017-08-01T06:13:48.173Z,61.39
2017-08-01T06:14:28.631Z,61.98
2017-08-01T06:15:09.084Z,61.98
2017-08-01T06:15:49.544Z,61.58
2017-08-01T06:16:29.996Z,61.98
2017-08-01T06:17:10.460Z,61.68
2017-08-01T06:17:50.908Z,61.68
2017-08-01T06:18:31.371Z,61.68
2017-08-01T06:19:11.825Z,61.58
2017-08-01T06:19:52.272Z,61.58
2017-08-01T06:20:32.726Z,61.58
2017-08-01T06:21:13.184Z,61.98
2017-08-01T06:21:53.638Z,61.58
2017-08-01T06:22:34.096Z,61.58
2017-08-01T06:23:14.571Z,61.78
2017-08-01T06:23:55.021Z,61.78
2017-08-01T06:24:35.474Z,61.78
2017-08-01T06:25:15.934Z,61.58
2017-08-01T06:25:56.388Z,61.98
2017-08-01T06:26:36.836Z,61.98
2017-08-01T06:27:17.297Z,61.58
2017-08-01T06:27:57.752Z,61.68
2017-08-01T06:28:38.203Z,61.88
2017-08-01T06:29:18.652Z,61.58
2017-08-01T06:29:59.100Z,61.88
2017-08-01T06:30:39.547Z,61.78
2017-08-01T06:31:19.994Z,61.88
2017-08-01T06:32:00.454Z,61.98
2017-08-01T06:32:40.912Z,61.78
2017-08-01T06:33:21.368Z,61.78
2017-08-01T06:34:01.831Z,61.98
2017-08-01T06:34:42.274Z,61.78
2017-08-01T06:35:22.729Z,61.88
2017-08-01T06:36:03.184Z,61.98
2017-08-01T06:36:43.654Z,61.68
2017-08-01T06:37:24.113Z,61.78
2017-08-01T06:38:04.628Z,61.39
2017-08-01T06:38:45.023Z,61.78
2017-08-01T06:39:25.548Z,61.68
2017-08-01T06:40:06.002Z,61.49
2017-08-01T06:40:46.451Z,61.49
2017-08-01T06:41:26.918Z,61.58
2017-08-01T06:42:07.369Z,61.68
2017-08-01T06:42:47.840Z,61.58
2017-08-01T06:43:28.315Z,61.39
2017-08-01T06:44:08.770Z,61.58
2017-08-01T06:44:49.320Z,61.49
2017-08-01T06:45:29.700Z,61.68
2017-08-01T06:46:10.160Z,61.49
2017-08-01T06:46:50.615Z,61.58
2017-08-01T06:47:31.065Z,61.58
2017-08-01T06:48:11.519Z,61.78
2017-08-01T06:48:51.965Z,61.78
2017-08-01T06:49:32.411Z,61.68
2017-08-01T06:50:12.880Z,61.78
2017-08-01T06:50:53.339Z,61.19
2017-08-01T06:51:33.794Z,61.39
2017-08-01T06:52:14.256Z,61
2017-08-01T06:52:54.713Z,61
2017-08-01T06:53:35.168Z,61.19
2017-08-01T06:54:15.622Z,61.19
2017-08-01T06:54:56.072Z,61.19
2017-08-01T06:55:36.532Z,61.29
2017-08-01T06:56:16.988Z,61.19
2017-08-01T06:56:57.444Z,61.29
2017-08-01T06:57:37.907Z,61.39
2017-08-01T06:58:18.362Z,61.39
2017-08-01T06:58:58.823Z,61.39
2017-08-01T06:59:39.280Z,61.39
2017-08-01T07:00:19.738Z,61.29
2017-08-01T07:01:00.199Z,61
2017-08-01T07:01:40.660Z,61.29
2017-08-01T07:02:21.112Z,61.39
2017-08-01T07:03:01.563Z,61.04
2017-08-01T07:03:42.024Z,60.84
2017-08-01T07:04:22.484Z,60.84
2017-08-01T07:05:02.940Z,61.04
2017-08-01T07:05:43.398Z,61.04
2017-08-01T07:06:23.839Z,61.04
2017-08-01T07:07:04.295Z,61.04
2017-08-01T07:07:44.750Z,61.04
2017-08-01T07:08:25.196Z,61.04
2017-08-01T07:09:05.681Z,60.74
2017-08-01T07:09:46.146Z,60.84
2017-08-01T07:10:26.616Z,61.04
2017-08-01T07:11:07.068Z,61.04
2017-08-01T07:11:47.520Z,60.84
2017-08-01T07:12:28.037Z,60.55
2017-08-01T07:13:08.490Z,60.84
2017-08-01T07:13:48.940Z,60.84
2017-08-01T07:14:29.403Z,60.94
2017-08-01T07:15:09.839Z,60.94
2017-08-01T07:15:50.290Z,60.74
2017-08-01T07:16:30.736Z,61.04
2017-08-01T07:17:11.188Z,60.84
2017-08-01T07:17:51.648Z,60.64
2017-08-01T07:18:32.116Z,60.74
2017-08-01T07:19:12.540Z,60.84
2017-08-01T07:19:52.997Z,60.64
2017-08-01T07:20:33.750Z,60.45
2017-08-01T07:21:14.372Z,60.35
2017-08-01T07:21:54.765Z,60.35
2017-08-01T07:22:35.472Z,60.06
2017-08-01T07:23:15.908Z,60.25
2017-08-01T07:23:56.368Z,60.45
2017-08-01T07:24:36.830Z,60.38
2017-08-01T07:25:17.475Z,60.16
2017-08-01T07:25:57.754Z,60.35
2017-08-01T07:26:38.203Z,60.25
2017-08-01T07:27:18.653Z,60.38
2017-08-01T07:27:59.114Z,60.38
2017-08-01T07:28:39.576Z,60.45
2017-08-01T07:29:20.034Z,60.48
2017-08-01T07:30:00.491Z,60.38
2017-08-01T07:30:40.940Z,60.58
2017-08-01T07:31:21.388Z,60.28
2017-08-01T07:32:01.823Z,60
2017-08-01T07:32:42.554Z,60.19
2017-08-01T07:33:23.069Z,60.68
2017-08-01T07:34:03.520Z,59.7
2017-08-01T07:34:43.966Z,59.61
2017-08-01T07:35:24.433Z,60.19
2017-08-01T07:36:04.885Z,60.38
2017-08-01T07:38:02.851Z,59.9
2017-08-01T07:38:43.623Z,60.09
2017-08-01T07:39:24.232Z,60.19
2017-08-01T07:40:04.699Z,60.28
2017-08-01T07:40:45.178Z,60
2017-08-01T07:41:25.638Z,60.19
2017-08-01T07:42:06.097Z,60.09
2017-08-01T07:42:46.550Z,60.09
2017-08-01T07:43:26.994Z,60.09
2017-08-01T07:44:07.452Z,59.9
2017-08-01T07:44:47.906Z,59.8
2017-08-01T07:45:28.365Z,60.19
2017-08-01T07:46:08.820Z,60
2017-08-01T07:46:49.277Z,59.8
2017-08-01T07:47:29.904Z,60
2017-08-01T07:48:10.350Z,60
2017-08-01T07:48:50.813Z,60.19
2017-08-01T07:49:31.466Z,60.19
2017-08-01T07:50:12.105Z,60.28
2017-08-01T07:50:52.552Z,60
2017-08-01T07:51:33.064Z,60.19
2017-08-01T07:53:20.625Z,60.12
2017-08-01T07:54:01.081Z,60.09
2017-08-01T07:54:41.538Z,60.09
2017-08-01T07:55:22.117Z,60.19
2017-08-01T07:56:02.584Z,60.38
2017-08-01T07:56:43.043Z,60.09
2017-08-01T07:57:23.689Z,60
2017-08-01T07:58:04.155Z,60
2017-08-01T07:58:44.727Z,60
2017-08-01T07:59:25.181Z,59.9
2017-08-01T08:00:05.635Z,59.8
2017-08-01T08:00:46.087Z,60.19
2017-08-01T08:01:26.881Z,60
2017-08-01T08:02:07.418Z,59.8
2017-08-01T08:02:47.967Z,60.09
2017-08-01T08:03:28.317Z,60.09
2017-08-01T08:04:08.772Z,60
2017-08-01T08:04:49.249Z,60
2017-08-01T08:05:29.705Z,59.9
2017-08-01T08:06:10.158Z,60
2017-08-01T08:06:50.613Z,59.9
2017-08-01T08:07:31.211Z,60.09
2017-08-01T08:08:11.661Z,59.51
2017-08-01T08:08:52.165Z,59.9
2017-08-01T08:09:32.559Z,60
2017-08-01T08:10:13.002Z,60
2017-08-01T08:10:53.453Z,60.38
2017-08-01T08:11:34.012Z,60.28
2017-08-01T08:12:14.472Z,60.19
2017-08-01T08:12:54.913Z,60.19
2017-08-01T08:13:35.352Z,60.02
2017-08-01T08:14:15.904Z,59.9
2017-08-01T08:14:56.276Z,60.22
2017-08-01T08:15:36.729Z,59.83
2017-08-01T08:16:17.182Z,59.92
2017-08-01T08:16:57.635Z,59.54
2017-08-01T08:17:38.078Z,59.64
2017-08-01T08:18:18.542Z,59.64
2017-08-01T08:18:59.508Z,59.64
2017-08-01T08:19:39.895Z,59.64
2017-08-01T08:20:20.382Z,59.15
2017-08-01T08:21:00.840Z,59.44
2017-08-01T08:21:41.293Z,59.44
2017-08-01T08:22:21.747Z,59.44
2017-08-01T08:23:02.198Z,59.44
2017-08-01T08:23:42.643Z,59.44
2017-08-01T08:24:23.094Z,59.44
2017-08-01T08:25:03.693Z,59.15
2017-08-01T08:25:44.120Z,58.98
2017-08-01T08:26:24.566Z,59.08
2017-08-01T08:28:12.230Z,58.69
2017-08-01T08:28:52.673Z,58.79
2017-08-01T08:29:33.109Z,58.89
2017-08-01T08:30:13.693Z,58.69
2017-08-01T08:30:54.149Z,58.89
2017-08-01T08:31:34.761Z,59.08
2017-08-01T08:32:15.207Z,59.18
2017-08-01T08:32:55.655Z,58.5
2017-08-01T08:33:36.114Z,58.5
2017-08-01T08:35:34.093Z,58.4
2017-08-01T08:36:14.553Z,58.69
2017-08-01T08:36:54.999Z,58.79
2017-08-01T08:37:35.452Z,58.69
2017-08-01T08:38:15.907Z,58.69
2017-08-01T08:38:56.358Z,58.59
2017-08-01T08:39:36.806Z,58.79
2017-08-01T08:40:17.269Z,58.5
2017-08-01T08:40:57.757Z,58.69
2017-08-01T08:41:38.306Z,58.5
2017-08-01T08:42:18.859Z,58.5
2017-08-01T08:42:59.337Z,58.59
2017-08-01T08:45:17.599Z,58.79
2017-08-01T08:45:58.048Z,58.89
2017-08-01T08:46:38.496Z,58.76
2017-08-01T08:47:18.954Z,58.69
2017-08-01T08:47:59.405Z,58.79
2017-08-01T08:48:39.834Z,58.79
2017-08-01T08:49:20.454Z,58.69
2017-08-01T08:50:00.909Z,58.67
2017-08-01T08:50:41.415Z,58.76
2017-08-01T08:51:22.022Z,59.25
2017-08-01T08:52:02.539Z,59.15
2017-08-01T08:52:43.005Z,59.64
2017-08-01T08:53:23.537Z,59.54
2017-08-01T08:54:03.974Z,59.44